Observation data for Tatum on 07/03/2020      Previous  Date  Next       Current Mesonet Observations  Soil Data  Daily Summary Page  Observations in Plain Language
KTAT 030500Z 14009KT 25/14 A3009 RMK A01 T02530143  RH  053%=      5-min Rain = 0
KTAT 030505Z 15009KT 25/14 A3009 RMK A01 T02520144  RH  053%=      5-min Rain = 0
KTAT 030510Z 16010KT 25/14 A3009 RMK A01 T02520144  RH  054%=      5-min Rain = 0
KTAT 030515Z 16010KT 25/15 A3009 RMK A01 T02510145  RH  054%=      5-min Rain = 0
KTAT 030520Z 16010KT 25/15 A3009 RMK A01 T02510145  RH  054%=      5-min Rain = 0
KTAT 030525Z 15009KT 25/15 A3009 RMK A01 T02510145  RH  054%=      5-min Rain = 0
KTAT 030530Z 14010KT 25/15 A301 RMK A01 T02520145  RH  054%=      5-min Rain = 0
KTAT 030535Z 15010KT 25/15 A301 RMK A01 T02510145  RH  054%=      5-min Rain = 0
KTAT 030540Z 16009KT 25/15 A3009 RMK A01 T02500145  RH  054%=      5-min Rain = 0
KTAT 030545Z 16009KT 25/15 A3009 RMK A01 T02490145  RH  055%=      5-min Rain = 0
KTAT 030550Z 16009KT 25/15 A301 RMK A01 T02480146  RH  055%=      5-min Rain = 0
KTAT 030555Z 15008KT 25/15 A301 RMK A01 T02480146  RH  056%=      5-min Rain = 0
KTAT 030600Z 15007KT 25/15 A301 RMK A01 T02470146  RH  056%=      5-min Rain = 0
KTAT 030605Z 15005KT 25/15 A3011 RMK A01 T02460146  RH  056%=      5-min Rain = 0
KTAT 030610Z 13005KT 25/15 A3011 RMK A01 T02450146  RH  057%=      5-min Rain = 0
KTAT 030615Z 12004KT 24/15 A3011 RMK A01 T02430146  RH  057%=      5-min Rain = 0
KTAT 030620Z 15004KT 24/15 A3012 RMK A01 T02420146  RH  058%=      5-min Rain = 0
KTAT 030625Z 17003KT 24/15 A3012 RMK A01 T02410146  RH  058%=      5-min Rain = 0
KTAT 030630Z 16004KT 24/15 A3012 RMK A01 T02400146  RH  058%=      5-min Rain = 0
KTAT 030635Z 15006KT 24/15 A3011 RMK A01 T02380146  RH  059%=      5-min Rain = 0
KTAT 030640Z 16006KT 24/15 A3011 RMK A01 T02370146  RH  059%=      5-min Rain = 0
KTAT 030645Z 17006KT 24/15 A3011 RMK A01 T02370147  RH  059%=      5-min Rain = 0
KTAT 030650Z 16006KT 24/15 A3011 RMK A01 T02380147  RH  059%=      5-min Rain = 0
KTAT 030655Z 16005KT 24/15 A3011 RMK A01 T02390147  RH  059%=      5-min Rain = 0
KTAT 030700Z 16006KT 24/15 A3011 RMK A01 T02400147  RH  058%=      5-min Rain = 0
KTAT 030705Z 16007KT 24/15 A3011 RMK A01 T02420146  RH  057%=      5-min Rain = 0
KTAT 030710Z 16010KT 25/14 A3011 RMK A01 T02460144  RH  055%=      5-min Rain = 0
KTAT 030715Z 16010KT 25/14 A3011 RMK A01 T02480142  RH  054%=      5-min Rain = 0
KTAT 030720Z 16010KT 25/14 A301 RMK A01 T02490141  RH  053%=      5-min Rain = 0
KTAT 030725Z 16009KT 25/14 A301 RMK A01 T02490140  RH  053%=      5-min Rain = 0
KTAT 030730Z 15008KT 25/14 A301 RMK A01 T02480140  RH  053%=      5-min Rain = 0
KTAT 030735Z 15007KT 25/14 A301 RMK A01 T02460141  RH  054%=      5-min Rain = 0
KTAT 030740Z 13006KT 24/14 A301 RMK A01 T02430143  RH  056%=      5-min Rain = 0
KTAT 030745Z 13008KT 24/14 A301 RMK A01 T02410144  RH  057%=      5-min Rain = 0
KTAT 030750Z 15008KT 24/14 A301 RMK A01 T02430143  RH  056%=      5-min Rain = 0
KTAT 030755Z 14008KT 24/14 A301 RMK A01 T02430142  RH  056%=      5-min Rain = 0
KTAT 030800Z 14007KT 24/14 A301 RMK A01 T02420142  RH  056%=      5-min Rain = 0
KTAT 030805Z 13008KT 24/14 A301 RMK A01 T02410142  RH  057%=      5-min Rain = 0
KTAT 030810Z 13008KT 24/14 A301 RMK A01 T02390143  RH  057%=      5-min Rain = 0
KTAT 030815Z 13008KT 24/14 A301 RMK A01 T02380143  RH  058%=      5-min Rain = 0
KTAT 030820Z 13007KT 24/14 A301 RMK A01 T02360143  RH  058%=      5-min Rain = 0
KTAT 030825Z 11007KT 23/14 A301 RMK A01 T02340143  RH  059%=      5-min Rain = 0
KTAT 030830Z 11006KT 23/14 A301 RMK A01 T02330143  RH  060%=      5-min Rain = 0
KTAT 030835Z 11004KT 23/14 A301 RMK A01 T02320143  RH  060%=      5-min Rain = 0
KTAT 030840Z 11004KT 23/14 A301 RMK A01 T02310142  RH  060%=      5-min Rain = 0
KTAT 030845Z 12005KT 23/14 A301 RMK A01 T02300143  RH  061%=      5-min Rain = 0
KTAT 030850Z 12005KT 23/14 A301 RMK A01 T02290143  RH  061%=      5-min Rain = 0
KTAT 030855Z 11005KT 23/14 A301 RMK A01 T02270143  RH  061%=      5-min Rain = 0
KTAT 030900Z 10005KT 23/14 A301 RMK A01 T02260143  RH  062%=      5-min Rain = 0
KTAT 030905Z 09005KT 23/14 A301 RMK A01 T02250143  RH  062%=      5-min Rain = 0
KTAT 030910Z 08005KT 23/14 A301 RMK A01 T02260143  RH  062%=      5-min Rain = 0
KTAT 030915Z 07003KT 23/14 A301 RMK A01 T02270143  RH  062%=      5-min Rain = 0
KTAT 030920Z 07002KT 23/14 A301 RMK A01 T02280143  RH  061%=      5-min Rain = 0
KTAT 030925Z 08002KT 23/14 A301 RMK A01 T02270142  RH  061%=      5-min Rain = 0
KTAT 030930Z 09003KT 22/14 A301 RMK A01 T02240140  RH  061%=      5-min Rain = 0
KTAT 030935Z 08005KT 22/14 A301 RMK A01 T02210141  RH  063%=      5-min Rain = 0
KTAT 030940Z 06006KT 22/14 A301 RMK A01 T02200142  RH  063%=      5-min Rain = 0
KTAT 030945Z 04004KT 22/14 A301 RMK A01 T02210140  RH  063%=      5-min Rain = 0
KTAT 030950Z 03004KT 22/14 A301 RMK A01 T02190140  RH  063%=      5-min Rain = 0
KTAT 030955Z 03005KT 22/14 A301 RMK A01 T02160139  RH  064%=      5-min Rain = 0
KTAT 031000Z 02007KT 22/14 A301 RMK A01 T02150139  RH  065%=      5-min Rain = 0
KTAT 031005Z 01008KT 22/14 A3011 RMK A01 T02150140  RH  065%=      5-min Rain = 0
KTAT 031010Z 01010KT 21/14 A3011 RMK A01 T02140141  RH  066%=      5-min Rain = 0
KTAT 031015Z 01010KT 22/14 A3012 RMK A01 T02160141  RH  065%=      5-min Rain = 0
KTAT 031020Z 02009KT 22/14 A3011 RMK A01 T02180141  RH  064%=      5-min Rain = 0
KTAT 031025Z 02008KT 22/14 A3011 RMK A01 T02210140  RH  063%=      5-min Rain = 0
KTAT 031030Z 03007KT 22/14 A3011 RMK A01 T02200140  RH  063%=      5-min Rain = 0
KTAT 031035Z 04008KT 22/14 A3011 RMK A01 T02180139  RH  063%=      5-min Rain = 0
KTAT 031040Z 03008KT 22/14 A3011 RMK A01 T02170139  RH  064%=      5-min Rain = 0
KTAT 031045Z 04007KT 22/14 A3011 RMK A01 T02170139  RH  064%=      5-min Rain = 0
KTAT 031050Z 04007KT 22/14 A3011 RMK A01 T02160139  RH  064%=      5-min Rain = 0
KTAT 031055Z 05007KT 22/14 A3011 RMK A01 T02160139  RH  064%=      5-min Rain = 0
KTAT 031100Z 06005KT 22/14 A3011 RMK A01 T02160139  RH  064%=      5-min Rain = 0
KTAT 031105Z 07005KT 21/14 A3011 RMK A01 T02140138  RH  065%=      5-min Rain = 0
KTAT 031110Z 06005KT 21/14 A3011 RMK A01 T02130139  RH  066%=      5-min Rain = 0
KTAT 031115Z 07004KT 21/14 A3011 RMK A01 T02130139  RH  066%=      5-min Rain = 0
KTAT 031120Z 08003KT 21/14 A3011 RMK A01 T02110139  RH  066%=      5-min Rain = 0
KTAT 031125Z 07004KT 21/14 A3011 RMK A01 T02070137  RH  067%=      5-min Rain = 0
KTAT 031130Z 07004KT 20/14 A3011 RMK A01 T02040136  RH  068%=      5-min Rain = 0
KTAT 031135Z 07005KT 20/14 A3011 RMK A01 T02030138  RH  069%=      5-min Rain = 0
KTAT 031140Z 07005KT 20/14 A3011 RMK A01 T02040138  RH  069%=      5-min Rain = 0
KTAT 031145Z 08006KT 20/14 A3011 RMK A01 T02000136  RH  069%=      5-min Rain = 0
KTAT 031150Z 08006KT 20/14 A3011 RMK A01 T01990138  RH  071%=      5-min Rain = 0
KTAT 031155Z 09006KT 20/14 A3011 RMK A01 T01990137  RH  071%=      5-min Rain = 0
KTAT 031200Z 09006KT 20/14 A3011 RMK A01 T01990138  RH  071%=      5-min Rain = 0
KTAT 031205Z 10005KT 20/14 A3011 RMK A01 T02000138  RH  070%=      5-min Rain = 0
KTAT 031210Z 11004KT 20/14 A3011 RMK A01 T02000137  RH  070%=      5-min Rain = 0
KTAT 031215Z 10005KT 20/14 A3011 RMK A01 T01990136  RH  070%=      5-min Rain = 0
KTAT 031220Z 10005KT 20/14 A3011 RMK A01 T02010138  RH  070%=      5-min Rain = 0
KTAT 031225Z 11005KT 20/14 A3011 RMK A01 T02040139  RH  069%=      5-min Rain = 0
KTAT 031230Z 12005KT 21/14 A3011 RMK A01 T02090140  RH  067%=      5-min Rain = 0
KTAT 031235Z 12005KT 21/14 A3011 RMK A01 T02140139  RH  065%=      5-min Rain = 0
KTAT 031240Z 12005KT 22/14 A3011 RMK A01 T02170140  RH  064%=      5-min Rain = 0
KTAT 031245Z 12006KT 22/14 A3011 RMK A01 T02230140  RH  062%=      5-min Rain = 0
KTAT 031250Z 13006KT 23/14 A3011 RMK A01 T02280140  RH  060%=      5-min Rain = 0
KTAT 031255Z 13007KT 23/14 A3011 RMK A01 T02330140  RH  058%=      5-min Rain = 0
KTAT 031300Z 13008KT 24/14 A3012 RMK A01 T02370140  RH  057%=      5-min Rain = 0
KTAT 031305Z 13008KT 24/14 A3012 RMK A01 T02400141  RH  056%=      5-min Rain = 0
KTAT 031310Z 14007KT 24/14 A3012 RMK A01 T02440141  RH  055%=      5-min Rain = 0
KTAT 031315Z 14009KT 25/14 A3012 RMK A01 T02490141  RH  053%=      5-min Rain = 0
KTAT 031320Z 15010KT 25/14 A3012 RMK A01 T02520142  RH  053%=      5-min Rain = 0
KTAT 031325Z 15010KT 25/14 A3013 RMK A01 T02540142  RH  052%=      5-min Rain = 0
KTAT 031330Z 15011KT 26/14 A3013 RMK A01 T02560143  RH  052%=      5-min Rain = 0
KTAT 031335Z 15012KT 26/14 A3013 RMK A01 T02580143  RH  051%=      5-min Rain = 0
KTAT 031340Z 15011KT 26/14 A3013 RMK A01 T02590144  RH  051%=      5-min Rain = 0
KTAT 031345Z 15011G16KT 25/14 A3013 RMK A01 T02530144  RH  053%=      5-min Rain = 0
KTAT 031350Z 16012KT 25/15 A3013 RMK A01 T02500146  RH  055%=      5-min Rain = 0
KTAT 031355Z 16010KT 26/15 A3013 RMK A01 T02580147  RH  053%=      5-min Rain = 0
KTAT 031400Z 16011KT 26/15 A3013 RMK A01 T02550145  RH  053%=      5-min Rain = 0
KTAT 031405Z 15012KT 25/15 A3013 RMK A01 T02510145  RH  054%=      5-min Rain = 0
KTAT 031410Z 16011KT 26/15 A3013 RMK A01 T02560146  RH  053%=      5-min Rain = 0
KTAT 031415Z 17011KT 26/15 A3012 RMK A01 T02610145  RH  051%=      5-min Rain = 0
KTAT 031420Z 17012KT 27/15 A3012 RMK A01 T02660145  RH  049%=      5-min Rain = 0
KTAT 031425Z 16012KT 27/14 A3012 RMK A01 T02690144  RH  048%=      5-min Rain = 0
KTAT 031430Z 17011KT 27/14 A3012 RMK A01 T02740142  RH  046%=      5-min Rain = 0
KTAT 031435Z 16009KT 28/14 A3013 RMK A01 T02790141  RH  045%=      5-min Rain = 0
KTAT 031440Z 14009KT 28/14 A3013 RMK A01 T02780140  RH  045%=      5-min Rain = 0
KTAT 031445Z 13008KT 28/14 A3014 RMK A01 T02770139  RH  044%=      5-min Rain = 0
KTAT 031450Z 12008KT 28/14 A3013 RMK A01 T02800141  RH  044%=      5-min Rain = 0
KTAT 031455Z 13007KT 28/14 A3013 RMK A01 T02830140  RH  043%=      5-min Rain = 0
KTAT 031500Z 13008KT 28/14 A3014 RMK A01 T02830138  RH  043%=      5-min Rain = 0
KTAT 031505Z 12008KT 28/14 A3014 RMK A01 T02770139  RH  045%=      5-min Rain = 0
KTAT 031510Z 12011KT 28/14 A3014 RMK A01 T02790143  RH  045%=      5-min Rain = 0
KTAT 031515Z 11010KT 29/14 A3014 RMK A01 T02850142  RH  043%=      5-min Rain = 0
KTAT 031520Z 11011KT 29/14 A3014 RMK A01 T02890141  RH  042%=      5-min Rain = 0
KTAT 031525Z 12011KT 29/14 A3014 RMK A01 T02910137  RH  041%=      5-min Rain = 0
KTAT 031530Z 12011KT 29/14 A3014 RMK A01 T02890136  RH  041%=      5-min Rain = 0
KTAT 031535Z 12009KT 29/13 A3014 RMK A01 T02930132  RH  039%=      5-min Rain = 0
KTAT 031540Z 14009KT 30/13 A3014 RMK A01 T02950129  RH  037%=      5-min Rain = 0
KTAT 031545Z 13009G14KT 30/13 A3014 RMK A01 T02980130  RH  037%=      5-min Rain = 0
KTAT 031550Z 14009KT 30/13 A3013 RMK A01 T03010128  RH  036%=      5-min Rain = 0
KTAT 031555Z 15009KT 31/13 A3013 RMK A01 T03050128  RH  035%=      5-min Rain = 0
KTAT 031600Z 15008KT 31/13 A3013 RMK A01 T03080127  RH  034%=      5-min Rain = 0
KTAT 031605Z 12009KT 31/12 A3013 RMK A01 T03060124  RH  034%=      5-min Rain = 0
KTAT 031610Z 13007G12KT 30/12 A3014 RMK A01 T03030123  RH  035%=      5-min Rain = 0
KTAT 031615Z 14008KT 31/13 A3014 RMK A01 T03070125  RH  034%=      5-min Rain = 0
KTAT 031620Z 13008KT 31/12 A3014 RMK A01 T03070123  RH  034%=      5-min Rain = 0
KTAT 031625Z 13008KT 31/12 A3014 RMK A01 T03100123  RH  033%=      5-min Rain = 0
KTAT 031630Z 14009KT 31/12 A3014 RMK A01 T03120124  RH  033%=      5-min Rain = 0
KTAT 031635Z 15008KT 32/13 A3014 RMK A01 T03160125  RH  032%=      5-min Rain = 0
KTAT 031640Z 13007KT 32/13 A3014 RMK A01 T03190125  RH  032%=      5-min Rain = 0
KTAT 031645Z 12008KT 32/12 A3014 RMK A01 T03230124  RH  031%=      5-min Rain = 0
KTAT 031650Z 15007G12KT 32/12 A3014 RMK A01 T03240122  RH  030%=      5-min Rain = 0
KTAT 031655Z 14010G15KT 33/12 A3014 RMK A01 T03260123  RH  030%=      5-min Rain = 0
KTAT 031700Z 13008G13KT 33/12 A3014 RMK A01 T03280120  RH  029%=      5-min Rain = 0
KTAT 031705Z 14007KT 33/12 A3014 RMK A01 T03280119  RH  029%=      5-min Rain = 0
KTAT 031710Z 13010KT 33/12 A3014 RMK A01 T03300117  RH  028%=      5-min Rain = 0
KTAT 031715Z 13008G14KT 33/12 A3014 RMK A01 T03320116  RH  028%=      5-min Rain = 0
KTAT 031720Z 13010KT 33/12 A3014 RMK A01 T03320118  RH  028%=      5-min Rain = 0
KTAT 031725Z 14010KT 33/12 A3013 RMK A01 T03310118  RH  028%=      5-min Rain = 0
KTAT 031730Z 14009G14KT 33/12 A3013 RMK A01 T03310115  RH  028%=      5-min Rain = 0
KTAT 031735Z 11009G14KT 34/12 A3013 RMK A01 T03400117  RH  027%=      5-min Rain = 0
KTAT 031740Z 14009G14KT 34/12 A3013 RMK A01 T03400117  RH  027%=      5-min Rain = 0
KTAT 031745Z 12010G15KT 34/12 A3013 RMK A01 T03360116  RH  027%=      5-min Rain = 0
KTAT 031750Z 12010G17KT 34/12 A3013 RMK A01 T03400115  RH  026%=      5-min Rain = 0
KTAT 031755Z 13010KT 34/11 A3013 RMK A01 T03420113  RH  026%=      5-min Rain = 0
KTAT 031800Z 13008G13KT 35/11 A3013 RMK A01 T03470111  RH  025%=      5-min Rain = 0
KTAT 031805Z 11009G16KT 35/11 A3013 RMK A01 T03460110  RH  025%=      5-min Rain = 0
KTAT 031810Z 11010KT 34/11 A3013 RMK A01 T03440110  RH  025%=      5-min Rain = 0
KTAT 031815Z 11009KT 35/11 A3013 RMK A01 T03520113  RH  024%=      5-min Rain = 0
KTAT 031820Z 13010KT 35/11 A3012 RMK A01 T03520111  RH  024%=      5-min Rain = 0
KTAT 031825Z 13009G15KT 35/11 A3012 RMK A01 T03500110  RH  024%=      5-min Rain = 0
KTAT 031830Z 12011G17KT 35/11 A3012 RMK A01 T03470108  RH  024%=      5-min Rain = 0
KTAT 031835Z 09012KT 35/11 A3012 RMK A01 T03540107  RH  023%=      5-min Rain = 0
KTAT 031840Z 10009KT 35/11 A3012 RMK A01 T03520107  RH  023%=      5-min Rain = 0
KTAT 031845Z 15008G17KT 35/11 A3011 RMK A01 T03520108  RH  024%=      5-min Rain = 0
KTAT 031850Z 10012KT 36/10 A3011 RMK A01 T03580104  RH  022%=      5-min Rain = 0
KTAT 031855Z 14010G16KT 36/10 A3012 RMK A01 T03550103  RH  022%=      5-min Rain = 0
KTAT 031900Z 13009G15KT 35/10 A3011 RMK A01 T03540102  RH  022%=      5-min Rain = 0
KTAT 031905Z 12014G19KT 35/10 A3011 RMK A01 T03530100  RH  022%=      5-min Rain = 0
KTAT 031910Z 13011G16KT 35/10 A3011 RMK A01 T03540097  RH  022%=      5-min Rain = 0
KTAT 031915Z 12008G17KT 36/09 A3011 RMK A01 T03570094  RH  021%=      5-min Rain = 0
KTAT 031920Z 11012G18KT 36/09 A301 RMK A01 T03580092  RH  020%=      5-min Rain = 0
KTAT 031925Z 14008G14KT 35/09 A301 RMK A01 T03530091  RH  021%=      5-min Rain = 0
KTAT 031930Z 15012G18KT 36/09 A3009 RMK A01 T03590094  RH  021%=      5-min Rain = 0
KTAT 031935Z 14012G19KT 36/09 A3009 RMK A01 T03620090  RH  020%=      5-min Rain = 0
KTAT 031940Z 13011G19KT 36/09 A3009 RMK A01 T03560091  RH  020%=      5-min Rain = 0
KTAT 031945Z 13011G18KT 35/09 A3009 RMK A01 T03530090  RH  021%=      5-min Rain = 0
KTAT 031950Z 14011G18KT 36/09 A3009 RMK A01 T03560090  RH  020%=      5-min Rain = 0
KTAT 031955Z 13012G19KT 35/09 A3009 RMK A01 T03450085  RH  021%=      5-min Rain = 0
KTAT 032000Z 11010G15KT 34/08 A3009 RMK A01 T03380083  RH  021%=      5-min Rain = 0
KTAT 032005Z 12011G17KT 33/09 A3009 RMK A01 T03330085  RH  022%=      5-min Rain = 0
KTAT 032010Z 14011KT 33/09 A3009 RMK A01 T03310085  RH  023%=      5-min Rain = 0
KTAT 032015Z 14008G16KT 33/09 A3009 RMK A01 T03320087  RH  023%=      5-min Rain = 0
KTAT 032020Z 13012G19KT 34/09 A3009 RMK A01 T03390089  RH  022%=      5-min Rain = 0
KTAT 032025Z 13013G20KT 34/09 A301 RMK A01 T03380088  RH  022%=      5-min Rain = 0
KTAT 032030Z 12011G16KT 34/09 A301 RMK A01 T03350088  RH  022%=      5-min Rain = 0
KTAT 032035Z 12010G15KT 34/09 A301 RMK A01 T03360088  RH  022%=      5-min Rain = 0
KTAT 032040Z 11012G17KT 35/09 A301 RMK A01 T03470090  RH  021%=      5-min Rain = 0
KTAT 032045Z 11010G15KT 35/09 A301 RMK A01 T03480087  RH  021%=      5-min Rain = 0
KTAT 032050Z 12009G17KT 34/09 A301 RMK A01 T03430087  RH  021%=      5-min Rain = 0
KTAT 032055Z 11013KT 34/09 A301 RMK A01 T03360089  RH  023%=      5-min Rain = 0
KTAT 032100Z 12009KT 33/09 A301 RMK A01 T03340090  RH  023%=      5-min Rain = 0
KTAT 032105Z 13009KT 34/09 A301 RMK A01 T03390091  RH  023%=      5-min Rain = 0
KTAT 032110Z 13007KT 34/09 A3011 RMK A01 T03380090  RH  022%=      5-min Rain = 0
KTAT 032115Z 13007KT 33/09 A301 RMK A01 T03320091  RH  023%=      5-min Rain = 0
KTAT 032120Z 14011KT 33/09 A301 RMK A01 T03290093  RH  024%=      5-min Rain = 0
KTAT 032125Z 14008G13KT 33/10 A301 RMK A01 T03280095  RH  025%=      5-min Rain = 0
KTAT 032130Z 13008KT 33/10 A301 RMK A01 T03250096  RH  025%=      5-min Rain = 0
KTAT 032135Z 12005G10KT 32/10 A301 RMK A01 T03240095  RH  025%=      5-min Rain = 0
KTAT 032140Z 12006KT 32/10 A301 RMK A01 T03240096  RH  025%=      5-min Rain = 0
KTAT 032145Z 23003G8KT 32/10 A3009 RMK A01 T03240101  RH  026%=      5-min Rain = 0
KTAT 032150Z 01008G14KT 31/11 A3009 RMK A01 T03110113  RH  031%=      5-min Rain = 0
KTAT 032155Z 00007KT 31/11 A3009 RMK A01 T03080114  RH  031%=      5-min Rain = 0
KTAT 032200Z 34006G11KT 32/11 A3009 RMK A01 T03180109  RH  029%=      5-min Rain = 0
KTAT 032205Z 02003KT 33/11 A3009 RMK A01 T03310107  RH  026%=      5-min Rain = 0
KTAT 032210Z 36004KT 34/11 A3008 RMK A01 T03370106  RH  025%=      5-min Rain = 0
KTAT 032215Z 10007KT 35/11 A3008 RMK A01 T03490105  RH  023%=      5-min Rain = 0
KTAT 032220Z 12011G16KT 36/10 A3007 RMK A01 T03560099  RH  022%=      5-min Rain = 0
KTAT 032225Z 14006G12KT 35/10 A3007 RMK A01 T03470098  RH  023%=      5-min Rain = 0
KTAT 032230Z 13008G14KT 34/10 A3007 RMK A01 T03430096  RH  023%=      5-min Rain = 0
KTAT 032235Z 13007KT 34/10 A3007 RMK A01 T03380096  RH  023%=      5-min Rain = 0
KTAT 032240Z 13007KT 34/10 A3007 RMK A01 T03350095  RH  024%=      5-min Rain = 0
KTAT 032245Z 14007G12KT 33/09 A3007 RMK A01 T03320093  RH  024%=      5-min Rain = 0
KTAT 032250Z 14004G10KT 33/09 A3007 RMK A01 T03310094  RH  024%=      5-min Rain = 0
KTAT 032255Z 14008G13KT 33/09 A3006 RMK A01 T03310094  RH  024%=      5-min Rain = 0
KTAT 032300Z 12006G13KT 33/10 A3006 RMK A01 T03290097  RH  025%=      5-min Rain = 0
KTAT 032305Z 14004KT 33/10 A3006 RMK A01 T03310097  RH  024%=      5-min Rain = 0
KTAT 032310Z 12007KT 33/10 A3006 RMK A01 T03330097  RH  024%=      5-min Rain = 0
KTAT 032315Z 11005KT 34/10 A3006 RMK A01 T03360098  RH  024%=      5-min Rain = 0
KTAT 032320Z 11007KT 34/10 A3005 RMK A01 T03410098  RH  023%=      5-min Rain = 0
KTAT 032325Z 12006G11KT 34/10 A3005 RMK A01 T03410097  RH  023%=      5-min Rain = 0
KTAT 032330Z 09004G12KT 35/10 A3004 RMK A01 T03460097  RH  023%=      5-min Rain = 0
KTAT 032335Z 09007KT 35/10 A3004 RMK A01 T03450097  RH  023%=      5-min Rain = 0
KTAT 032340Z 11007KT 35/09 A3004 RMK A01 T03500094  RH  022%=      5-min Rain = 0
KTAT 032345Z 12004KT 35/10 A3004 RMK A01 T03500096  RH  022%=      5-min Rain = 0
KTAT 032350Z 12005G10KT 35/10 A3004 RMK A01 T03520097  RH  022%=      5-min Rain = 0
KTAT 032355Z 07005G10KT 35/10 A3004 RMK A01 T03460097  RH  023%=      5-min Rain = 0
KTAT 040000Z 10006KT 35/10 A3005 RMK A01 T03510098  RH  022%=      5-min Rain = 0
KTAT 040005Z 10006KT 35/10 A3005 RMK A01 T03520097  RH  022%=      5-min Rain = 0
KTAT 040010Z 12009KT 34/10 A3005 RMK A01 T03440096  RH  023%=      5-min Rain = 0
KTAT 040015Z 09007KT 34/10 A3005 RMK A01 T03440098  RH  023%=      5-min Rain = 0
KTAT 040020Z 09008KT 35/10 A3005 RMK A01 T03460096  RH  022%=      5-min Rain = 0
KTAT 040025Z 12010KT 34/10 A3005 RMK A01 T03360096  RH  024%=      5-min Rain = 0
KTAT 040030Z 10007KT 33/10 A3005 RMK A01 T03310097  RH  025%=      5-min Rain = 0
KTAT 040035Z 11008KT 33/10 A3006 RMK A01 T03270096  RH  025%=      5-min Rain = 0
KTAT 040040Z 11008KT 33/10 A3006 RMK A01 T03250096  RH  025%=      5-min Rain = 0
KTAT 040045Z 11009KT 32/10 A3006 RMK A01 T03240096  RH  025%=      5-min Rain = 0
KTAT 040050Z 11009KT 32/10 A3006 RMK A01 T03230096  RH  025%=      5-min Rain = 0
KTAT 040055Z 12010KT 32/10 A3006 RMK A01 T03220095  RH  025%=      5-min Rain = 0
KTAT 040100Z 12010KT 32/09 A3006 RMK A01 T03220094  RH  025%=      5-min Rain = 0
KTAT 040105Z 12008KT 32/10 A3006 RMK A01 T03210095  RH  026%=      5-min Rain = 0
KTAT 040110Z 12009KT 32/09 A3006 RMK A01 T03200093  RH  025%=      5-min Rain = 0
KTAT 040115Z 11008KT 32/09 A3006 RMK A01 T03190093  RH  026%=      5-min Rain = 0
KTAT 040120Z 11008KT 32/09 A3006 RMK A01 T03180093  RH  026%=      5-min Rain = 0
KTAT 040125Z 12007KT 32/09 A3006 RMK A01 T03180092  RH  026%=      5-min Rain = 0
KTAT 040130Z 12007KT 32/09 A3006 RMK A01 T03170092  RH  026%=      5-min Rain = 0
KTAT 040135Z 13007KT 32/09 A3006 RMK A01 T03160092  RH  026%=      5-min Rain = 0
KTAT 040140Z 12007KT 32/09 A3006 RMK A01 T03150092  RH  026%=      5-min Rain = 0
KTAT 040145Z 12008KT 31/09 A3006 RMK A01 T03140091  RH  026%=      5-min Rain = 0
KTAT 040150Z 12007KT 31/09 A3006 RMK A01 T03130090  RH  026%=      5-min Rain = 0
KTAT 040155Z 12006KT 31/09 A3006 RMK A01 T03100090  RH  026%=      5-min Rain = 0
KTAT 040200Z 12006KT 31/09 A3007 RMK A01 T03080090  RH  027%=      5-min Rain = 0
KTAT 040205Z 11007KT 31/09 A3007 RMK A01 T03070089  RH  027%=      5-min Rain = 0
KTAT 040210Z 11008KT 31/09 A3007 RMK A01 T03070087  RH  026%=      5-min Rain = 0
KTAT 040215Z 11008KT 31/09 A3007 RMK A01 T03060085  RH  026%=      5-min Rain = 0
KTAT 040220Z 11009KT 30/08 A3007 RMK A01 T03030083  RH  026%=      5-min Rain = 0
KTAT 040225Z 11009KT 30/08 A3007 RMK A01 T03020082  RH  026%=      5-min Rain = 0
KTAT 040230Z 11009KT 30/08 A3007 RMK A01 T03000082  RH  026%=      5-min Rain = 0
KTAT 040235Z 11010KT 30/08 A3007 RMK A01 T02990082  RH  026%=      5-min Rain = 0
KTAT 040240Z 11010KT 30/08 A3007 RMK A01 T02980082  RH  027%=      5-min Rain = 0
KTAT 040245Z 11010KT 30/08 A3007 RMK A01 T02980082  RH  027%=      5-min Rain = 0
KTAT 040250Z 11009KT 30/08 A3008 RMK A01 T02970082  RH  027%=      5-min Rain = 0
KTAT 040255Z 11008KT 29/08 A3008 RMK A01 T02930082  RH  027%=      5-min Rain = 0
KTAT 040300Z 11008KT 29/08 A3008 RMK A01 T02910082  RH  028%=      5-min Rain = 0
KTAT 040305Z 11008KT 29/08 A3008 RMK A01 T02890083  RH  028%=      5-min Rain = 0
KTAT 040310Z 11009KT 29/08 A3008 RMK A01 T02900083  RH  028%=      5-min Rain = 0
KTAT 040315Z 11009KT 29/08 A3008 RMK A01 T02910082  RH  028%=      5-min Rain = 0
KTAT 040320Z 11009KT 29/08 A3009 RMK A01 T02910082  RH  028%=      5-min Rain = 0
KTAT 040325Z 11009KT 29/08 A3009 RMK A01 T02920082  RH  028%=      5-min Rain = 0
KTAT 040330Z 11010KT 29/08 A3009 RMK A01 T02910081  RH  027%=      5-min Rain = 0
KTAT 040335Z 11010KT 29/08 A3009 RMK A01 T02910081  RH  027%=      5-min Rain = 0
KTAT 040340Z 11010KT 29/08 A301 RMK A01 T02910081  RH  027%=      5-min Rain = 0
KTAT 040345Z 11011KT 29/08 A301 RMK A01 T02910081  RH  028%=      5-min Rain = 0
KTAT 040350Z 11010KT 29/08 A301 RMK A01 T02900082  RH  028%=      5-min Rain = 0
KTAT 040355Z 11010KT 29/08 A301 RMK A01 T02890082  RH  028%=      5-min Rain = 0
KTAT 040400Z 11011KT 29/08 A3011 RMK A01 T02880083  RH  028%=      5-min Rain = 0
KTAT 040405Z 11012KT 29/08 A3011 RMK A01 T02880083  RH  028%=      5-min Rain = 0
KTAT 040410Z 11012KT 29/08 A3011 RMK A01 T02880083  RH  028%=      5-min Rain = 0
KTAT 040415Z 11012KT 29/08 A3011 RMK A01 T02880083  RH  029%=      5-min Rain = 0
KTAT 040420Z 11012KT 29/08 A3011 RMK A01 T02880083  RH  029%=      5-min Rain = 0
KTAT 040425Z 11012KT 29/08 A3011 RMK A01 T02880083  RH  028%=      5-min Rain = 0
KTAT 040430Z 11012KT 29/08 A3011 RMK A01 T02880083  RH  028%=      5-min Rain = 0
KTAT 040435Z 11013KT 29/08 A3011 RMK A01 T02880082  RH  028%=      5-min Rain = 0
KTAT 040440Z 12013KT 29/08 A3011 RMK A01 T02870082  RH  028%=      5-min Rain = 0
KTAT 040445Z 11013G18KT 29/08 A3011 RMK A01 T02860082  RH  029%=      5-min Rain = 0
KTAT 040450Z 11012KT 29/08 A3011 RMK A01 T02860082  RH  029%=      5-min Rain = 0
KTAT 040455Z 12012KT 28/08 A3012 RMK A01 T02840082  RH  029%=      5-min Rain = 0

Page generated in 0.0091 seconds.